Time;durP1;ratioP1;P1;durP2;ratioP2;P2;SDS_P1;SDS_P2;PMS_P1;PMS_P2;Temp;Humidity;BMP_temperature;BMP_pressure;BME280_temperature;BME280_humidity;BME280_pressure;Samples;Min_cycle;Max_cycle;Signal;HPM_P1;HPM_P2
2021/11/17 02:26:13;;;;;;;4.88;1.75;;;24.10;66.10;;;;;;5061021;28;20036;-69
2021/11/17 02:28:50;;;;;;;7.22;2.50;;;23.50;67.70;;;;;;5054858;28;20025;-69
2021/11/17 02:31:42;;;;;;;7.38;2.83;;;23.30;68.10;;;;;;5061815;28;20066;-66
2021/11/17 02:34:30;;;;;;;5.63;2.30;;;23.20;70.30;;;;;;5053744;28;20145;-68
2021/11/17 02:37:21;;;;;;;6.57;1.92;;;24.00;68.00;;;;;;4708281;28;9999996;-67
2021/11/17 02:39:54;;;;;;;8.25;2.13;;;25.00;63.80;;;;;;5050148;28;20056;-68
2021/11/17 02:42:35;;;;;;;8.18;2.42;;;25.60;59.90;;;;;;5059812;28;20024;-67
2021/11/17 02:45:26;;;;;;;5.35;1.88;;;25.00;61.70;;;;;;5052200;28;20033;-66
2021/11/17 02:48:20;;;;;;;6.18;2.17;;;25.20;60.80;;;;;;5050435;28;20025;-68
2021/11/17 02:51:18;;;;;;;5.78;2.05;;;25.70;59.20;;;;;;5057945;28;20025;-68
2021/11/17 02:53:57;;;;;;;7.30;2.35;;;26.00;59.70;;;;;;5061444;28;20056;-69
2021/11/17 02:56:51;;;;;;;6.20;2.35;;;26.60;57.70;;;;;;5056661;28;20021;-69
2021/11/17 02:59:45;;;;;;;5.10;2.38;;;26.30;58.60;;;;;;5058862;28;20040;-69
2021/11/17 03:02:21;;;;;;;8.07;2.75;;;26.70;59.50;;;;;;5049646;28;20559;-68
2021/11/17 03:05:04;;;;;;;5.05;2.28;;;27.20;56.90;;;;;;5050568;28;20147;-68
2021/11/17 03:07:49;;;;;;;7.50;2.05;;;27.60;57.30;;;;;;5051874;28;20394;-66
2021/11/17 03:10:19;;;;;;;6.63;2.15;;;27.60;55.70;;;;;;5050688;28;20013;-68
2021/11/17 03:12:52;;;;;;;7.90;3.08;;;26.40;58.00;;;;;;5049398;28;20029;-66
2021/11/17 03:15:50;;;;;;;5.88;2.42;;;25.90;59.60;;;;;;5057724;28;20479;-69
2021/11/17 03:18:36;;;;;;;7.10;2.20;;;26.80;58.00;;;;;;5057076;28;20033;-67
2021/11/17 03:21:09;;;;;;;4.35;1.90;;;27.70;54.20;;;;;;5051407;28;20028;-67
2021/11/17 03:23:51;;;;;;;6.68;2.20;;;28.10;55.70;;;;;;5050023;28;20033;-68
2021/11/17 03:26:36;;;;;;;;;;;28.60;57.50;;;;;;5058591;28;20024;-67
2021/11/17 03:29:29;;;;;;;7.05;2.42;;;28.90;56.40;;;;;;5061775;28;20046;-67
2021/11/17 03:32:12;;;;;;;7.30;1.80;;;28.50;54.20;;;;;;5050456;28;20021;-67
2021/11/17 03:34:51;;;;;;;6.55;2.00;;;28.70;54.00;;;;;;5055847;28;20479;-68
2021/11/17 03:37:55;;;;;;;5.22;1.88;;;28.60;50.80;;;;;;5057431;28;20028;-68
2021/11/17 03:40:32;;;;;;;4.88;1.83;;;28.30;54.00;;;;;;5049930;28;20024;-69
2021/11/17 03:43:35;;;;;;;6.20;1.95;;;28.30;53.30;;;;;;5057992;28;20024;-67
2021/11/17 03:46:05;;;;;;;3.78;1.70;;;28.20;51.20;;;;;;5057193;28;20021;-67
2021/11/17 03:48:35;;;;;;;3.88;1.98;;;27.70;54.50;;;;;;5048946;28;20070;-67
2021/11/17 03:51:33;;;;;;;7.32;2.15;;;27.50;53.00;;;;;;5050502;28;20036;-68
2021/11/17 03:54:36;;;;;;;5.50;1.98;;;27.60;55.30;;;;;;5050100;28;20155;-67
2021/11/17 03:57:18;;;;;;;7.05;1.88;;;27.70;56.70;;;;;;5065504;28;20020;-68
2021/11/17 04:00:15;;;;;;;4.03;1.80;;;27.90;54.90;;;;;;5054509;28;20154;-67
2021/11/17 04:02:54;;;;;;;6.32;1.90;;;28.00;55.70;;;;;;5054971;28;20036;-66
2021/11/17 04:05:27;;;;;;;8.60;1.83;;;28.00;52.80;;;;;;5064735;28;20079;-69
2021/11/17 04:08:24;;;;;;;6.63;2.17;;;28.40;54.30;;;;;;5056821;28;20021;-66
2021/11/17 04:11:19;;;;;;;3.40;1.50;;;28.40;53.50;;;;;;5051091;28;20029;-68
2021/11/17 04:14:08;;;;;;;4.35;1.73;;;27.50;57.10;;;;;;5054434;28;20400;-66
2021/11/17 04:17:05;;;;;;;3.75;1.88;;;27.80;56.10;;;;;;5055706;28;20056;-69
2021/11/17 04:20:02;;;;;;;6.25;1.63;;;28.00;55.30;;;;;;5057812;28;20116;-66
2021/11/17 04:22:54;;;;;;;7.20;3.08;;;28.20;54.00;;;;;;5047622;28;20028;-67
2021/11/17 04:25:39;;;;;;;7.45;2.10;;;28.80;53.60;;;;;;5060362;28;20017;-68
2021/11/17 04:28:21;;;;;;;6.00;1.92;;;28.60;53.50;;;;;;5059341;28;20052;-67
2021/11/17 04:31:12;;;;;;;7.30;1.92;;;29.00;53.00;;;;;;5059531;28;20044;-70
2021/11/17 04:34:20;;;;;;;11.05;2.08;;;29.00;52.90;;;;;;5057640;28;20035;-68
2021/11/17 04:37:25;;;;;;;4.45;1.80;;;29.30;49.00;;;;;;5051784;28;20047;-71
2021/11/17 04:40:21;;;;;;;5.40;1.58;;;28.70;49.80;;;;;;5053192;28;20491;-71
2021/11/17 04:42:50;;;;;;;5.57;1.58;;;28.60;50.70;;;;;;5048837;28;20021;-68
2021/11/17 04:45:36;;;;;;;3.75;1.65;;;28.60;51.50;;;;;;5060631;28;20079;-70
2021/11/17 04:48:39;;;;;;;5.32;1.42;;;29.10;49.30;;;;;;5047413;28;20021;-66
2021/11/17 04:51:34;;;;;;;8.05;1.60;;;28.30;53.30;;;;;;5052637;28;20021;-65
2021/11/17 04:54:19;;;;;;;6.10;2.00;;;27.80;52.60;;;;;;5053924;28;20068;-66
2021/11/17 04:57:07;;;;;;;7.00;1.80;;;27.10;54.70;;;;;;5057943;28;20029;-66
2021/11/17 05:00:11;;;;;;;5.15;1.65;;;26.10;54.90;;;;;;5055726;28;20044;-65
2021/11/17 05:02:38;;;;;;;2.95;1.55;;;25.90;57.00;;;;;;5053882;28;20047;-67
2021/11/17 05:05:14;;;;;;;4.88;1.70;;;25.70;58.40;;;;;;5047809;28;20024;-67
2021/11/17 05:08:00;;;;;;;9.00;4.30;;;25.40;59.80;;;;;;5048757;28;20032;-67
2021/11/17 05:10:26;;;;;;;6.47;2.05;;;25.60;59.80;;;;;;5060185;28;20047;-68
2021/11/17 05:13:06;;;;;;;8.18;3.72;;;25.70;60.60;;;;;;5054078;28;20052;-67
2021/11/17 05:15:55;;;;;;;3.88;1.33;;;26.10;56.90;;;;;;5054345;28;20028;-68
2021/11/17 05:19:00;;;;;;;4.97;1.52;;;26.50;56.60;;;;;;5059007;28;20145;-67
2021/11/17 05:21:35;;;;;;;3.88;1.70;;;26.60;56.70;;;;;;5048686;28;20059;-67
2021/11/17 05:24:43;;;;;;;5.43;1.70;;;26.20;57.70;;;;;;5051712;28;20025;-67
2021/11/17 05:27:47;;;;;;;5.40;1.85;;;25.90;59.80;;;;;;5029326;28;20480;-66
2021/11/17 05:30:43;;;;;;;6.38;1.85;;;25.50;59.20;;;;;;5054573;28;20128;-64
2021/11/17 05:33:22;;;;;;;4.45;1.60;;;26.10;58.70;;;;;;5057063;28;20486;-66
2021/11/17 05:35:55;;;;;;;7.45;1.70;;;26.70;58.40;;;;;;5053509;28;20118;-66
2021/11/17 05:38:58;;;;;;;6.93;2.00;;;27.10;58.50;;;;;;5060753;28;20028;-68
2021/11/17 05:41:31;;;;;;;4.68;1.50;;;27.60;57.00;;;;;;5061527;28;20032;-70
2021/11/17 05:43:58;;;;;;;4.53;1.60;;;27.80;57.40;;;;;;5053109;28;20037;-66
2021/11/17 05:46:25;;;;;;;4.50;1.60;;;28.20;54.80;;;;;;5051528;28;20039;-67
2021/11/17 05:49:04;;;;;;;10.65;2.70;;;27.90;55.00;;;;;;5050914;28;20071;-68
2021/11/17 05:51:56;;;;;;;4.80;1.67;;;27.70;55.00;;;;;;5048228;28;20061;-67
2021/11/17 05:54:40;;;;;;;4.32;1.30;;;27.00;55.40;;;;;;5048678;28;20041;-68
2021/11/17 05:57:25;;;;;;;4.35;1.75;;;26.10;58.30;;;;;;5052495;28;20105;-68
2021/11/17 06:00:02;;;;;;;4.30;1.70;;;25.80;59.30;;;;;;5051949;28;20044;-69
2021/11/17 06:02:47;;;;;;;8.20;2.00;;;25.90;58.50;;;;;;5052526;28;20051;-69
2021/11/17 06:05:13;;;;;;;4.63;1.60;;;26.00;59.30;;;;;;5050482;28;20029;-69
2021/11/17 06:07:40;;;;;;;4.57;2.08;;;26.80;56.70;;;;;;5058492;28;20533;-69
2021/11/17 06:10:14;;;;;;;5.68;2.00;;;27.30;55.70;;;;;;5055203;28;20519;-68
2021/11/17 06:12:42;;;;;;;3.67;1.70;;;27.00;56.50;;;;;;5055665;28;20032;-68
2021/11/17 06:15:13;;;;;;;5.43;1.90;;;27.00;59.00;;;;;;5057425;28;20025;-69
2021/11/17 06:17:43;;;;;;;5.97;1.98;;;27.50;57.40;;;;;;5054702;28;20061;-68
2021/11/17 06:20:12;;;;;;;3.28;1.60;;;27.90;55.60;;;;;;5053901;28;20565;-71
2021/11/17 06:22:48;;;;;;;2.65;1.33;;;27.60;54.80;;;;;;5054677;28;20555;-70
2021/11/17 06:25:17;;;;;;;4.38;1.70;;;27.10;55.80;;;;;;5065522;28;20028;-67
2021/11/17 06:27:48;;;;;;;4.05;1.30;;;26.80;57.30;;;;;;5058114;28;20103;-70
2021/11/17 06:30:17;;;;;;;4.53;1.42;;;27.50;56.70;;;;;;5059975;28;20100;-70
2021/11/17 06:32:45;;;;;;;2.80;1.10;;;28.20;56.40;;;;;;5058513;28;20078;-71
2021/11/17 06:35:14;;;;;;;3.60;1.30;;;28.50;54.60;;;;;;5057038;28;20028;-68
2021/11/17 06:37:41;;;;;;;6.45;1.30;;;28.90;53.30;;;;;;5058324;28;20518;-68
2021/11/17 06:40:13;;;;;;;6.03;1.80;;;29.10;54.00;;;;;;5064117;28;20039;-68
2021/11/17 06:42:42;;;;;;;;;;;29.40;53.00;;;;;;5054304;28;20071;-73
2021/11/17 06:45:32;;;;;;;4.15;1.33;;;29.60;52.80;;;;;;5062713;28;19916;-68
2021/11/17 06:48:00;;;;;;;5.68;1.60;;;29.40;53.10;;;;;;5045208;28;20067;-67
2021/11/17 06:50:28;;;;;;;2.58;1.30;;;29.60;52.00;;;;;;5055041;28;20028;-68
2021/11/17 06:55:33;;;;;;;6.45;1.70;;;29.70;52.20;;;;;;5103468;27;20051;-71
2021/11/17 06:58:00;;;;;;;3.50;1.20;;;29.60;52.80;;;;;;5107384;27;20028;-71
2021/11/17 07:00:29;;;;;;;7.60;1.65;;;29.70;51.70;;;;;;5098603;28;20031;-69
2021/11/17 07:02:57;;;;;;;3.13;1.20;;;29.60;51.80;;;;;;5095601;28;20386;-71
2021/11/17 07:05:24;;;;;;;4.82;1.80;;;29.60;51.50;;;;;;5099150;28;20063;-69
2021/11/17 07:07:54;;;;;;;4.38;1.30;;;29.70;50.50;;;;;;5084751;28;20090;-68
2021/11/17 07:10:26;;;;;;;4.85;1.48;;;29.60;51.10;;;;;;5095701;28;20015;-72
2021/11/17 07:12:53;;;;;;;3.67;1.58;;;29.10;51.80;;;;;;5100331;27;20027;-70
2021/11/17 07:15:22;;;;;;;3.95;1.50;;;28.70;52.50;;;;;;5096911;28;20051;-70
2021/11/17 07:17:49;;;;;;;3.88;1.42;;;28.70;52.50;;;;;;5097639;28;20059;-72
2021/11/17 07:20:17;;;;;;;3.13;1.40;;;28.70;52.60;;;;;;5092110;28;20560;-71
2021/11/17 07:22:45;;;;;;;2.63;1.52;;;28.50;53.50;;;;;;5094962;28;20058;-70
2021/11/17 07:25:16;;;;;;;3.53;1.50;;;28.80;52.70;;;;;;5096332;28;20377;-69
2021/11/17 07:27:44;;;;;;;4.93;1.63;;;28.90;51.60;;;;;;5096228;28;20039;-66
2021/11/17 07:30:14;;;;;;;5.65;2.15;;;28.90;52.20;;;;;;5098345;28;20096;-67
2021/11/17 07:32:41;;;;;;;5.35;2.38;;;28.50;52.40;;;;;;5082425;28;20074;-70
2021/11/17 07:35:10;;;;;;;4.28;1.80;;;28.50;52.70;;;;;;5098030;28;20078;-67
2021/11/17 07:37:39;;;;;;;5.32;1.42;;;28.50;52.70;;;;;;5097238;28;20030;-69
2021/11/17 07:40:09;;;;;;;3.30;1.45;;;27.90;53.50;;;;;;5098266;28;20024;-69
2021/11/17 07:42:39;;;;;;;5.78;2.38;;;27.60;54.10;;;;;;5100209;28;20353;-71
2021/11/17 07:45:09;;;;;;;7.18;2.67;;;27.30;55.00;;;;;;5065906;28;20089;-67
2021/11/17 07:47:37;;;;;;;4.47;1.63;;;27.10;55.30;;;;;;5097750;28;20028;-71
2021/11/17 07:50:06;;;;;;;3.30;1.45;;;26.70;55.50;;;;;;5102202;28;20059;-70
2021/11/17 07:52:37;;;;;;;3.90;1.98;;;26.40;56.70;;;;;;5100350;28;20019;-66
2021/11/17 07:55:06;;;;;;;5.25;2.10;;;26.20;57.50;;;;;;5094938;28;20202;-67
2021/11/17 07:57:34;;;;;;;7.20;1.70;;;26.00;57.80;;;;;;5100546;28;20115;-66
2021/11/17 08:00:03;;;;;;;7.05;2.53;;;25.80;57.60;;;;;;5097736;28;20140;-68
2021/11/17 08:02:30;;;;;;;3.03;1.35;;;25.40;59.10;;;;;;5097949;28;20203;-69
2021/11/17 08:04:57;;;;;;;3.53;1.40;;;25.40;59.70;;;;;;5097165;28;20028;-71
2021/11/17 08:07:25;;;;;;;5.00;1.50;;;25.20;60.60;;;;;;5097931;28;20403;-70
2021/11/17 08:09:52;;;;;;;4.80;1.20;;;24.60;61.70;;;;;;5097923;28;20085;-68
2021/11/17 08:12:20;;;;;;;2.75;1.63;;;24.10;63.50;;;;;;5100537;28;20092;-69
2021/11/17 08:14:50;;;;;;;4.10;1.50;;;23.40;67.50;;;;;;5098363;28;20047;-68
2021/11/17 08:17:19;;;;;;;6.38;2.00;;;22.80;71.20;;;;;;5098342;28;20039;-68
2021/11/17 08:19:48;;;;;;;6.45;1.90;;;22.30;74.30;;;;;;5099331;28;20054;-72
2021/11/17 08:22:16;;;;;;;5.65;1.48;;;21.90;76.90;;;;;;5095899;28;20138;-68
2021/11/17 08:24:44;;;;;;;4.47;1.65;;;21.80;79.20;;;;;;5099258;28;20031;-70
2021/11/17 08:27:19;;;;;;;7.20;1.90;;;21.40;83.10;;;;;;5076357;28;20034;-69
2021/11/17 08:29:49;;;;;;;4.68;2.33;;;21.10;84.50;;;;;;5074329;28;20111;-69
2021/11/17 08:32:19;;;;;;;5.15;1.90;;;20.70;88.40;;;;;;5075964;28;20027;-69
2021/11/17 08:34:47;;;;;;;5.30;2.03;;;20.60;90.40;;;;;;5064453;28;20303;-71
2021/11/17 08:37:17;;;;;;;5.45;1.58;;;20.40;90.70;;;;;;5079502;28;20019;-68
2021/11/17 08:39:47;;;;;;;4.95;1.98;;;20.20;91.30;;;;;;5089655;28;20034;-71
2021/11/17 08:42:17;;;;;;;3.67;1.38;;;20.00;91.80;;;;;;5093403;28;20355;-70
2021/11/17 08:44:47;;;;;;;6.03;1.90;;;19.80;92.30;;;;;;5092300;28;20397;-73
2021/11/17 08:47:19;;;;;;;4.72;1.45;;;19.60;92.90;;;;;;5096772;28;20016;-73
2021/11/17 08:49:47;;;;;;;7.05;1.48;;;19.50;93.40;;;;;;5091455;28;20016;-69
2021/11/17 08:52:14;;;;;;;4.47;3.08;;;19.30;93.20;;;;;;5094765;28;20451;-71
2021/11/17 08:54:42;;;;;;;6.22;1.90;;;19.20;94.40;;;;;;5093023;28;20055;-76
2021/11/17 08:57:09;;;;;;;7.15;1.73;;;19.10;94.10;;;;;;5096827;28;20590;-77
2021/11/17 08:59:39;;;;;;;4.88;1.80;;;19.10;94.00;;;;;;5076504;28;20051;-74
2021/11/17 09:02:09;;;;;;;7.93;4.28;;;18.90;95.30;;;;;;5075658;28;20483;-71
2021/11/17 09:04:36;;;;;;;8.15;4.70;;;18.80;95.60;;;;;;5094653;28;20047;-69
2021/11/17 09:07:04;;;;;;;10.00;6.68;;;18.70;96.40;;;;;;5075346;28;20092;-72
2021/11/17 09:09:31;;;;;;;4.40;1.88;;;18.60;97.20;;;;;;5094933;28;20027;-71
2021/11/17 09:11:58;;;;;;;3.88;1.65;;;18.60;96.80;;;;;;5076910;28;20033;-76
2021/11/17 09:14:25;;;;;;;8.35;2.50;;;18.40;97.00;;;;;;5093177;28;20020;-70
2021/11/17 09:16:53;;;;;;;5.65;1.85;;;18.20;97.40;;;;;;5095341;28;20016;-68
2021/11/17 09:19:22;;;;;;;3.70;1.70;;;18.10;98.00;;;;;;5073159;28;20020;-68
2021/11/17 09:21:49;;;;;;;3.45;1.40;;;17.90;98.70;;;;;;5088977;28;20019;-71
2021/11/17 09:24:20;;;;;;;5.13;1.65;;;17.90;99.20;;;;;;5092469;28;20034;-73
2021/11/17 09:26:49;;;;;;;3.42;1.80;;;17.90;99.00;;;;;;5094299;28;20115;-68
2021/11/17 09:29:17;;;;;;;6.13;1.67;;;17.80;99.50;;;;;;5092763;28;20020;-70
2021/11/17 09:31:46;;;;;;;3.88;1.67;;;17.70;99.90;;;;;;5089222;28;20035;-72
2021/11/17 09:34:15;;;;;;;2.60;1.63;;;17.60;99.90;;;;;;5095527;28;20537;-71
2021/11/17 09:36:42;;;;;;;4.47;1.33;;;17.50;99.90;;;;;;5087826;28;20048;-71
2021/11/17 09:39:11;;;;;;;5.72;1.70;;;17.50;99.90;;;;;;5095561;28;20418;-68
2021/11/17 09:41:48;;;;;;;4.72;1.80;;;17.50;99.90;;;;;;5095114;28;20028;-70
2021/11/17 09:44:32;;;;;;;7.18;1.83;;;17.40;99.90;;;;;;5091960;28;20027;-67
2021/11/17 09:47:06;;;;;;;5.65;2.15;;;17.30;99.90;;;;;;5091051;28;20050;-69
2021/11/17 09:50:07;;;;;;;9.82;2.13;;;17.30;99.90;;;;;;5091310;28;20347;-68
2021/11/17 09:52:47;;;;;;;3.35;1.40;;;17.40;99.90;;;;;;5091431;28;20024;-70
2021/11/17 09:55:17;;;;;;;4.55;1.88;;;17.30;99.90;;;;;;5090924;28;20039;-74
2021/11/17 09:57:51;;;;;;;4.13;1.63;;;17.20;99.90;;;;;;5088736;28;20028;-72
2021/11/17 10:00:29;;;;;;;4.40;1.52;;;17.30;99.90;;;;;;5095115;28;20053;-69
2021/11/17 10:03:08;;;;;;;3.10;1.42;;;17.30;99.90;;;;;;5074734;28;20061;-73
2021/11/17 10:08:56;;;;;;;2.70;1.20;;;17.30;99.90;;;;;;5093648;28;20020;-70
2021/11/17 10:14:31;;;;;;;2.75;1.50;;;17.50;99.90;;;;;;5066169;28;20029;-71
2021/11/17 10:16:59;;;;;;;5.25;1.60;;;17.50;99.90;;;;;;5086901;28;20070;-71
2021/11/17 10:19:34;;;;;;;4.13;1.35;;;17.60;99.90;;;;;;5094501;28;20027;-70
2021/11/17 10:22:11;;;;;;;4.90;1.55;;;17.60;99.90;;;;;;5083615;28;20031;-71
2021/11/17 10:24:53;;;;;;;2.35;1.20;;;17.70;99.90;;;;;;5096217;28;20081;-72
2021/11/17 10:27:27;;;;;;;5.05;1.70;;;17.80;99.90;;;;;;5088517;28;20049;-70
2021/11/17 10:30:20;;;;;;;3.85;1.30;;;17.80;99.90;;;;;;5085168;28;20028;-69
2021/11/17 10:33:02;;;;;;;5.35;1.48;;;17.90;99.90;;;;;;5069010;28;20043;-70
2021/11/17 10:35:33;;;;;;;3.50;1.35;;;17.90;99.90;;;;;;5091381;28;20040;-71
2021/11/17 10:38:03;;;;;;;3.15;1.20;;;17.90;99.90;;;;;;5082582;28;20466;-69
2021/11/17 10:40:33;;;;;;;4.55;1.42;;;17.90;99.90;;;;;;5086005;28;20024;-71
2021/11/17 10:43:04;;;;;;;3.38;1.50;;;17.90;99.90;;;;;;5083549;28;20343;-71
2021/11/17 10:45:45;;;;;;;5.95;1.52;;;17.90;99.90;;;;;;5091847;28;20024;-72
2021/11/17 10:48:37;;;;;;;4.65;1.45;;;17.90;99.90;;;;;;5099549;28;20566;-71
2021/11/17 10:51:09;;;;;;;4.28;1.60;;;18.00;99.90;;;;;;5090131;28;20024;-67
2021/11/17 10:53:37;;;;;;;5.23;1.57;;;17.90;99.90;;;;;;5096431;28;20199;-66
2021/11/17 10:56:09;;;;;;;5.35;1.83;;;17.90;99.90;;;;;;5096016;28;20348;-69
2021/11/17 10:58:40;;;;;;;7.05;2.00;;;17.90;99.90;;;;;;5094719;28;20023;-68
2021/11/17 11:01:16;;;;;;;5.15;1.42;;;18.00;99.90;;;;;;5089608;28;20023;-67
2021/11/17 11:03:48;;;;;;;8.35;1.85;;;17.90;99.90;;;;;;5089515;28;20032;-67
2021/11/17 11:06:25;;;;;;;3.65;1.23;;;17.90;99.90;;;;;;5096651;28;20024;-70
2021/11/17 11:08:57;;;;;;;5.25;1.90;;;17.80;99.90;;;;;;5087911;28;20387;-72
2021/11/17 11:11:25;;;;;;;4.45;1.55;;;17.80;99.90;;;;;;5089582;28;20062;-72
2021/11/17 11:14:23;;;;;;;3.33;1.38;;;17.80;99.90;;;;;;5087230;28;20027;-73
2021/11/17 11:17:18;;;;;;;4.28;1.25;;;17.70;99.90;;;;;;5091029;28;20202;-73
2021/11/17 11:19:45;;;;;;;4.20;1.30;;;17.70;99.90;;;;;;5091458;28;20028;-69
2021/11/17 11:22:36;;;;;;;5.22;1.50;;;17.70;99.90;;;;;;5089282;28;20440;-69
2021/11/17 11:25:45;;;;;;;2.30;1.20;;;17.80;99.90;;;;;;5099702;28;20022;-72
2021/11/17 11:28:21;;;;;;;5.55;1.65;;;17.70;99.90;;;;;;5068596;28;20540;-68
2021/11/17 11:31:11;;;;;;;4.75;1.30;;;17.60;99.90;;;;;;5092899;28;20030;-72
2021/11/17 11:33:38;;;;;;;2.00;1.30;;;17.60;99.90;;;;;;5090838;28;20023;-69
2021/11/17 11:36:11;;;;;;;6.57;1.50;;;17.60;99.90;;;;;;5099107;28;20023;-69
2021/11/17 11:38:39;;;;;;;;;;;17.60;99.90;;;;;;5104475;28;20066;-69
2021/11/17 11:41:47;;;;;;;3.35;1.55;;;17.60;99.90;;;;;;5100140;28;20290;-73
2021/11/17 11:44:23;;;;;;;4.50;1.42;;;17.50;99.90;;;;;;5097518;28;20122;-71
2021/11/17 11:46:59;;;;;;;3.65;1.48;;;17.50;99.90;;;;;;5100339;27;20382;-70
2021/11/17 11:49:41;;;;;;;4.47;1.60;;;17.50;99.90;;;;;;5099730;28;20111;-74
2021/11/17 11:52:31;;;;;;;5.97;2.15;;;17.60;99.90;;;;;;5093050;28;20028;-72
2021/11/17 11:55:02;;;;;;;4.25;1.98;;;17.60;99.90;;;;;;5077405;28;20052;-74
2021/11/17 11:57:32;;;;;;;4.35;1.42;;;17.60;99.90;;;;;;5077825;28;20497;-68
2021/11/17 12:00:23;;;;;;;3.75;1.40;;;17.60;99.90;;;;;;5081630;28;20031;-72
2021/11/17 12:03:10;;;;;;;3.30;1.52;;;17.60;99.90;;;;;;5091207;28;20077;-69
2021/11/17 12:05:37;;;;;;;5.85;1.67;;;17.50;99.90;;;;;;5100690;28;20032;-67
2021/11/17 12:08:34;;;;;;;3.65;1.48;;;17.50;99.90;;;;;;5093021;28;20038;-69
2021/11/17 12:11:07;;;;;;;5.78;1.60;;;17.50;99.90;;;;;;5094039;28;20479;-70
2021/11/17 12:13:37;;;;;;;3.33;1.30;;;17.50;99.90;;;;;;5088565;28;20557;-71
2021/11/17 12:16:24;;;;;;;4.53;1.70;;;17.50;99.90;;;;;;5094403;28;20097;-70
2021/11/17 12:18:55;;;;;;;7.25;1.60;;;17.50;99.90;;;;;;5089199;28;20031;-67
2021/11/17 12:21:25;;;;;;;5.93;2.03;;;17.50;99.90;;;;;;5094936;28;20039;-71
2021/11/17 12:24:09;;;;;;;5.22;1.60;;;17.50;99.90;;;;;;5093644;28;20024;-67
2021/11/17 12:27:05;;;;;;;4.10;1.75;;;17.50;99.90;;;;;;5103467;28;20439;-70
2021/11/17 12:29:44;;;;;;;4.85;1.55;;;17.50;99.90;;;;;;5071664;28;20126;-69
2021/11/17 12:32:40;;;;;;;8.27;1.70;;;17.50;99.90;;;;;;5092713;28;20038;-69
2021/11/17 12:35:10;;;;;;;4.47;1.80;;;17.50;99.90;;;;;;5092682;28;20066;-67
2021/11/17 12:38:01;;;;;;;6.38;2.45;;;17.60;99.90;;;;;;5100705;28;20024;-69
2021/11/17 12:40:52;;;;;;;7.80;2.10;;;17.50;99.90;;;;;;5093274;28;20020;-76
2021/11/17 12:43:39;;;;;;;5.47;1.60;;;17.50;99.90;;;;;;5102502;28;20031;-76
2021/11/17 12:46:43;;;;;;;7.57;2.60;;;17.50;99.90;;;;;;5099368;28;20103;-75
2021/11/17 12:49:14;;;;;;;6.55;2.08;;;17.50;99.90;;;;;;5094005;28;20028;-70
2021/11/17 12:52:11;;;;;;;10.25;2.00;;;17.50;99.90;;;;;;5103141;28;20370;-70
2021/11/17 12:54:52;;;;;;;6.03;2.00;;;17.50;99.90;;;;;;5100563;28;20059;-67
2021/11/17 12:57:31;;;;;;;5.18;1.45;;;17.50;99.90;;;;;;5097920;28;20035;-75
2021/11/17 13:00:13;;;;;;;3.38;1.60;;;17.50;99.90;;;;;;5098582;28;20103;-75
2021/11/17 13:02:46;;;;;;;1.92;1.30;;;17.40;99.90;;;;;;5106299;28;21459;-71
2021/11/17 13:05:37;;;;;;;7.65;2.03;;;17.40;99.90;;;;;;5100222;28;20120;-71
2021/11/17 13:08:04;;;;;;;8.63;2.10;;;17.40;99.90;;;;;;5094872;28;20160;-68
2021/11/17 13:10:36;;;;;;;6.70;1.70;;;17.40;99.90;;;;;;5097473;28;20020;-67
2021/11/17 13:13:23;;;;;;;5.40;2.20;;;17.40;99.90;;;;;;5084516;28;20054;-69
2021/11/17 13:16:08;;;;;;;4.22;2.00;;;17.40;99.90;;;;;;5076522;28;20486;-69
2021/11/17 13:18:46;;;;;;;3.75;1.65;;;17.40;99.90;;;;;;5101451;28;20043;-74
2021/11/17 13:21:18;;;;;;;6.55;1.80;;;17.40;99.90;;;;;;5098465;28;20032;-67
2021/11/17 13:24:23;;;;;;;5.28;1.88;;;17.40;99.90;;;;;;5103754;28;20478;-70
2021/11/17 13:27:15;;;;;;;3.58;1.90;;;17.40;99.90;;;;;;5091970;28;20470;-70
2021/11/17 13:29:51;;;;;;;2.83;1.70;;;17.40;99.90;;;;;;5091812;28;20406;-76
2021/11/17 13:32:34;;;;;;;7.82;1.92;;;17.40;99.90;;;;;;5074057;28;20265;-68
2021/11/17 13:35:23;;;;;;;5.10;1.88;;;17.30;99.90;;;;;;5106197;28;20083;-71
2021/11/17 13:38:06;;;;;;;4.97;1.58;;;17.30;99.90;;;;;;5103025;28;20038;-68
2021/11/17 13:40:33;;;;;;;6.80;1.85;;;17.30;99.90;;;;;;5092691;28;20034;-68
2021/11/17 13:43:01;;;;;;;6.47;1.80;;;17.30;99.90;;;;;;5094570;28;20043;-69
2021/11/17 13:45:31;;;;;;;5.85;1.80;;;17.30;99.90;;;;;;5100644;28;20432;-72
2021/11/17 13:47:58;;;;;;;2.95;1.52;;;17.30;99.90;;;;;;5089607;28;20486;-67
2021/11/17 13:50:30;;;;;;;3.95;1.33;;;17.30;99.90;;;;;;5102741;28;20042;-74
2021/11/17 13:52:57;;;;;;;3.38;1.65;;;17.30;99.90;;;;;;5101047;28;20044;-75
2021/11/17 13:55:29;;;;;;;5.93;1.45;;;17.40;99.90;;;;;;5100214;28;20048;-74
2021/11/17 13:57:56;;;;;;;3.87;1.60;;;17.30;99.90;;;;;;5096798;28;20073;-70
2021/11/17 14:00:24;;;;;;;4.28;1.42;;;17.30;99.90;;;;;;5096038;28;20034;-67
2021/11/17 14:02:53;;;;;;;5.53;1.50;;;17.30;99.90;;;;;;5103972;28;20027;-70
2021/11/17 14:05:21;;;;;;;9.07;1.92;;;17.20;99.90;;;;;;5099262;28;20267;-67
2021/11/17 14:07:50;;;;;;;4.50;1.50;;;17.30;99.90;;;;;;5099827;28;20023;-68
2021/11/17 14:10:20;;;;;;;7.40;1.75;;;17.20;99.90;;;;;;5097126;28;20055;-70
2021/11/17 14:12:52;;;;;;;8.48;1.83;;;17.20;99.90;;;;;;5096964;28;20023;-72
2021/11/17 14:15:19;;;;;;;5.13;2.00;;;17.20;99.90;;;;;;5093536;28;20390;-68
2021/11/17 14:17:48;;;;;;;2.50;1.20;;;17.20;99.90;;;;;;5098635;28;20039;-76
2021/11/17 14:20:16;;;;;;;5.20;1.77;;;17.20;99.90;;;;;;5104948;28;20107;-72
2021/11/17 14:22:43;;;;;;;3.53;1.35;;;17.20;99.90;;;;;;5100156;28;20031;-72
2021/11/17 14:25:17;;;;;;;4.95;1.30;;;17.10;99.90;;;;;;5100413;28;20020;-75
2021/11/17 14:27:48;;;;;;;5.38;1.38;;;17.10;99.90;;;;;;5102621;28;20059;-74
2021/11/17 14:30:22;;;;;;;7.47;1.92;;;17.10;99.90;;;;;;5101387;28;20078;-69
2021/11/17 14:32:52;;;;;;;6.35;1.67;;;17.00;99.90;;;;;;5104432;28;20024;-68
2021/11/17 14:35:21;;;;;;;5.60;1.50;;;17.00;99.90;;;;;;5105517;28;20031;-71
2021/11/17 14:37:48;;;;;;;4.13;1.70;;;17.00;99.90;;;;;;5105210;28;20077;-70
2021/11/17 14:40:17;;;;;;;3.00;1.50;;;16.90;99.90;;;;;;5095506;28;20038;-74
2021/11/17 14:42:44;;;;;;;3.83;1.73;;;16.90;99.90;;;;;;5100735;28;20472;-70
2021/11/17 14:45:17;;;;;;;3.25;1.27;;;16.90;99.90;;;;;;5100924;28;20020;-68
2021/11/17 14:47:45;;;;;;;5.57;1.50;;;16.90;99.90;;;;;;5099205;28;20035;-75
2021/11/17 14:50:13;;;;;;;4.07;1.70;;;16.80;99.90;;;;;;5101441;28;20500;-75
2021/11/17 14:52:42;;;;;;;5.03;1.80;;;16.70;99.90;;;;;;5095471;28;20032;-68
2021/11/17 14:55:13;;;;;;;3.03;1.38;;;16.70;99.90;;;;;;5099251;28;20497;-75
2021/11/17 14:57:41;;;;;;;3.65;1.27;;;16.60;99.90;;;;;;5098975;28;20680;-68
2021/11/17 15:00:13;;;;;;;5.63;2.08;;;16.60;99.90;;;;;;5094793;28;20023;-67
2021/11/17 15:02:40;;;;;;;5.32;1.98;;;16.60;99.90;;;;;;5100736;28;20036;-74
2021/11/17 15:05:08;;;;;;;4.63;1.70;;;16.50;99.90;;;;;;5100902;28;20438;-72
2021/11/17 15:07:36;;;;;;;3.63;1.77;;;16.50;99.90;;;;;;5078506;28;20020;-75
2021/11/17 15:10:07;;;;;;;9.52;2.70;;;16.40;99.90;;;;;;5094194;28;20043;-74
2021/11/17 15:12:36;;;;;;;4.23;1.50;;;16.30;99.90;;;;;;5097580;28;20028;-75
2021/11/17 15:15:09;;;;;;;4.50;1.77;;;16.20;99.90;;;;;;5088629;28;20688;-68
2021/11/17 15:17:37;;;;;;;3.70;1.58;;;16.00;99.90;;;;;;5100098;28;20027;-72
2021/11/17 15:20:06;;;;;;;5.57;2.22;;;16.00;99.90;;;;;;5097636;28;20120;-68
2021/11/17 15:22:35;;;;;;;4.93;1.88;;;15.90;99.90;;;;;;5107054;28;20122;-68
2021/11/17 15:25:02;;;;;;;3.22;1.70;;;15.80;99.90;;;;;;5101018;28;20012;-74
2021/11/17 15:27:36;;;;;;;4.90;1.33;;;15.70;99.90;;;;;;5101683;28;20028;-68
2021/11/17 15:30:07;;;;;;;4.22;1.73;;;15.60;99.90;;;;;;5096309;28;20020;-72
2021/11/17 15:32:34;;;;;;;4.85;1.73;;;15.50;99.90;;;;;;5102771;28;20034;-74
2021/11/17 15:35:03;;;;;;;3.55;1.88;;;15.40;99.90;;;;;;5105177;28;20474;-69
2021/11/17 15:37:30;;;;;;;6.28;2.28;;;15.40;99.90;;;;;;5093662;28;20024;-75
2021/11/17 15:39:57;;;;;;;6.35;2.10;;;15.30;99.90;;;;;;5096430;28;20035;-69
2021/11/17 15:42:24;;;;;;;6.55;2.30;;;15.10;99.90;;;;;;5097071;28;20023;-71
2021/11/17 15:44:51;;;;;;;4.20;1.80;;;15.10;99.90;;;;;;5100929;28;20015;-74
2021/11/17 15:47:23;;;;;;;3.15;1.67;;;15.10;99.90;;;;;;5094539;28;20138;-76
2021/11/17 15:49:50;;;;;;;5.60;2.25;;;15.00;99.90;;;;;;5096326;28;20035;-74
2021/11/17 15:52:17;;;;;;;4.38;1.80;;;14.90;99.90;;;;;;5098449;28;20043;-71
2021/11/17 15:54:44;;;;;;;5.55;1.90;;;14.80;99.90;;;;;;5098903;28;20466;-67
2021/11/17 15:57:11;;;;;;;4.35;2.42;;;14.80;99.90;;;;;;5096492;28;20027;-67
2021/11/17 15:59:38;;;;;;;4.28;1.92;;;14.70;99.90;;;;;;5100234;28;20097;-71
2021/11/17 16:02:05;;;;;;;7.63;2.22;;;14.60;99.90;;;;;;5096993;28;20462;-71
2021/11/17 16:04:32;;;;;;;5.03;2.75;;;14.50;99.90;;;;;;5103296;28;20020;-73
2021/11/17 16:07:02;;;;;;;7.60;2.45;;;14.50;99.90;;;;;;5104104;28;20028;-67
2021/11/17 16:09:38;;;;;;;5.03;2.50;;;14.40;99.90;;;;;;5096918;28;20027;-68